Time;durP1;ratioP1;P1;durP2;ratioP2;P2;SDS_P1;SDS_P2;PMS_P1;PMS_P2;Temp;Humidity;BMP_temperature;BMP_pressure;BME280_temperature;BME280_humidity;BME280_pressure;Samples;Min_cycle;Max_cycle;Signal;HPM_P1;HPM_P2
2022/07/05 00:00:48;;;;;;;0.00;0.00;;;13.80;99.90;;;;;;5097024;28;20130;-79
2022/07/05 00:03:14;;;;;;;0.00;0.00;;;13.80;99.90;;;;;;5080156;28;20047;-78
2022/07/05 00:05:39;;;;;;;0.00;0.00;;;13.80;99.90;;;;;;5079265;28;20510;-79
2022/07/05 00:08:06;;;;;;;0.28;0.00;;;13.70;99.90;;;;;;5096362;28;20059;-78
2022/07/05 00:10:33;;;;;;;0.00;0.00;;;13.70;99.90;;;;;;5079837;28;20398;-78
2022/07/05 00:12:58;;;;;;;0.00;0.00;;;13.70;99.90;;;;;;5097581;28;20051;-79
2022/07/05 00:15:24;;;;;;;0.00;0.00;;;13.70;99.90;;;;;;5096941;28;20071;-79
2022/07/05 00:17:50;;;;;;;0.00;0.00;;;13.70;99.90;;;;;;5096799;28;20047;-79
2022/07/05 00:20:16;;;;;;;2.08;0.45;;;13.70;99.90;;;;;;5096647;28;20046;-78
2022/07/05 00:22:42;;;;;;;0.00;0.00;;;13.70;99.90;;;;;;5096839;28;20104;-79
2022/07/05 00:25:08;;;;;;;0.00;0.00;;;13.60;99.90;;;;;;5096352;28;20138;-78
2022/07/05 00:27:34;;;;;;;0.00;0.00;;;13.60;99.90;;;;;;5079560;28;20078;-79
2022/07/05 00:29:59;;;;;;;0.00;0.00;;;13.50;99.90;;;;;;5079878;28;20043;-79
2022/07/05 00:32:25;;;;;;;0.00;0.00;;;13.50;99.90;;;;;;5096439;28;20395;-79
2022/07/05 00:34:51;;;;;;;0.00;0.00;;;13.50;99.90;;;;;;5096430;28;20042;-78
2022/07/05 00:37:17;;;;;;;0.00;0.00;;;13.50;99.90;;;;;;5096498;28;20043;-79
2022/07/05 00:39:42;;;;;;;0.00;0.00;;;13.40;99.90;;;;;;5096242;28;20540;-79
2022/07/05 00:42:09;;;;;;;0.00;0.00;;;13.50;99.90;;;;;;5096324;28;20039;-79
2022/07/05 00:44:41;;;;;;;0.00;0.00;;;13.40;99.90;;;;;;5095945;28;20043;-79
2022/07/05 00:47:08;;;;;;;0.00;0.00;;;13.40;99.90;;;;;;5096277;28;20043;-79
2022/07/05 00:49:35;;;;;;;0.00;0.00;;;13.40;99.90;;;;;;5095800;28;20410;-79
2022/07/05 00:52:01;;;;;;;0.00;0.00;;;13.50;99.90;;;;;;5096018;28;20043;-79
2022/07/05 00:54:29;;;;;;;0.00;0.00;;;13.40;99.90;;;;;;5096228;28;20479;-79
2022/07/05 00:56:55;;;;;;;0.00;0.00;;;13.40;99.90;;;;;;5096208;28;20054;-79
2022/07/05 00:59:21;;;;;;;0.00;0.00;;;13.30;99.90;;;;;;5096114;28;20047;-79
2022/07/05 01:01:47;;;;;;;0.00;0.00;;;13.30;99.90;;;;;;5096243;28;20398;-79
2022/07/05 01:04:13;;;;;;;0.00;0.00;;;13.30;99.90;;;;;;5096027;28;20040;-79
2022/07/05 01:06:45;;;;;;;0.00;0.00;;;13.30;99.90;;;;;;5095802;28;20050;-78
2022/07/05 01:09:12;;;;;;;0.00;0.00;;;13.30;99.90;;;;;;5095728;28;20051;-79
2022/07/05 01:11:39;;;;;;;0.00;0.00;;;13.20;99.90;;;;;;5096256;28;20185;-79
2022/07/05 01:14:10;;;;;;;0.00;0.00;;;13.20;99.90;;;;;;5095971;28;20050;-79
2022/07/05 01:16:38;;;;;;;0.00;0.00;;;13.10;99.90;;;;;;5095983;28;20069;-79
2022/07/05 01:19:08;;;;;;;0.00;0.00;;;13.10;99.90;;;;;;5079128;28;20040;-79
2022/07/05 01:21:40;;;;;;;0.00;0.00;;;13.10;99.90;;;;;;5095664;28;20472;-79
2022/07/05 01:24:11;;;;;;;0.00;0.00;;;13.10;99.90;;;;;;5096101;28;20490;-79
2022/07/05 01:26:38;;;;;;;0.00;0.00;;;13.10;99.90;;;;;;5096044;28;20079;-79
2022/07/05 01:29:05;;;;;;;0.00;0.00;;;13.10;99.90;;;;;;5095534;28;20044;-79
2022/07/05 01:31:31;;;;;;;0.00;0.00;;;13.10;99.90;;;;;;5095616;28;20407;-79
2022/07/05 01:33:57;;;;;;;0.00;0.00;;;13.00;99.90;;;;;;5095826;28;20077;-81
2022/07/05 01:36:23;;;;;;;0.00;0.00;;;13.00;99.90;;;;;;5095893;28;20036;-79
2022/07/05 01:38:50;;;;;;;0.00;0.00;;;13.00;99.90;;;;;;5096031;28;20093;-79
2022/07/05 01:41:15;;;;;;;0.00;0.00;;;13.10;99.90;;;;;;5095773;28;20050;-81
2022/07/05 01:43:43;;;;;;;0.00;0.00;;;13.20;99.90;;;;;;5078287;28;20500;-79
2022/07/05 01:46:10;;;;;;;0.00;0.00;;;13.10;99.90;;;;;;5095857;28;20437;-80
2022/07/05 01:48:38;;;;;;;0.00;0.00;;;13.10;99.90;;;;;;5095425;28;20112;-79
2022/07/05 01:51:20;;;;;;;0.00;0.00;;;13.20;99.90;;;;;;5095733;28;20048;-80
2022/07/05 01:53:49;;;;;;;0.00;0.00;;;13.10;99.90;;;;;;5096612;28;20142;-80
2022/07/05 01:56:15;;;;;;;0.00;0.00;;;13.20;99.90;;;;;;5097190;28;20043;-79
2022/07/05 01:58:42;;;;;;;0.00;0.00;;;13.20;99.90;;;;;;5099502;28;20080;-80
2022/07/05 02:01:07;;;;;;;0.00;0.00;;;13.20;99.90;;;;;;5099418;28;20051;-79
2022/07/05 02:03:34;;;;;;;0.00;0.00;;;13.30;99.90;;;;;;5100271;28;20386;-79
2022/07/05 02:06:00;;;;;;;0.00;0.00;;;13.30;99.90;;;;;;5099397;28;20154;-79
2022/07/05 02:08:30;;;;;;;0.00;0.00;;;13.30;99.90;;;;;;5095513;28;20496;-79
2022/07/05 02:10:56;;;;;;;0.00;0.00;;;13.30;99.90;;;;;;5079013;28;20135;-79
2022/07/05 02:13:22;;;;;;;0.00;0.00;;;13.20;99.90;;;;;;5095853;28;20036;-79
2022/07/05 02:15:48;;;;;;;0.00;0.00;;;13.20;99.90;;;;;;5095791;28;20109;-79
2022/07/05 02:18:13;;;;;;;0.00;0.00;;;13.20;99.90;;;;;;5095794;28;20082;-79
2022/07/05 02:20:40;;;;;;;0.00;0.00;;;13.10;99.90;;;;;;5096260;28;20047;-79
2022/07/05 02:23:06;;;;;;;0.00;0.00;;;13.10;99.90;;;;;;5096170;28;20067;-79
2022/07/05 02:25:32;;;;;;;0.00;0.00;;;13.10;99.90;;;;;;5095536;28;20047;-79
2022/07/05 02:27:58;;;;;;;0.00;0.00;;;13.10;99.90;;;;;;5095412;28;20085;-79
2022/07/05 02:30:24;;;;;;;0.00;0.00;;;13.10;99.90;;;;;;5095601;28;20043;-79
2022/07/05 02:32:49;;;;;;;0.00;0.00;;;13.10;99.90;;;;;;5095565;28;20472;-79
2022/07/05 02:35:15;;;;;;;0.10;0.00;;;13.10;99.90;;;;;;5095502;28;20048;-79
2022/07/05 02:37:41;;;;;;;0.00;0.00;;;13.00;99.90;;;;;;5077524;28;20160;-79
2022/07/05 02:40:09;;;;;;;0.00;0.00;;;13.00;99.90;;;;;;5095364;28;20044;-79
2022/07/05 02:42:34;;;;;;;0.00;0.00;;;13.00;99.90;;;;;;5095196;28;20121;-78
2022/07/05 02:45:00;;;;;;;0.00;0.00;;;13.00;99.90;;;;;;5095069;28;20056;-78
2022/07/05 02:47:28;;;;;;;0.00;0.00;;;13.00;99.90;;;;;;5095087;28;20040;-79
2022/07/05 02:49:54;;;;;;;1.02;0.30;;;13.00;99.90;;;;;;5095315;28;20048;-79
2022/07/05 02:52:20;;;;;;;0.00;0.00;;;12.90;99.90;;;;;;5095406;28;20039;-79
2022/07/05 02:54:45;;;;;;;0.00;0.00;;;12.90;99.90;;;;;;5095051;28;20048;-79
2022/07/05 02:57:11;;;;;;;0.00;0.00;;;12.90;99.90;;;;;;5094881;28;20388;-79
2022/07/05 02:59:37;;;;;;;0.00;0.00;;;12.80;99.90;;;;;;5094963;28;20051;-79
2022/07/05 03:02:02;;;;;;;0.10;0.00;;;12.80;99.90;;;;;;5094673;28;20076;-79
2022/07/05 03:04:28;;;;;;;0.00;0.00;;;12.80;99.90;;;;;;5094785;28;20113;-79
2022/07/05 03:06:54;;;;;;;0.00;0.00;;;12.90;99.90;;;;;;5094078;28;20060;-79
2022/07/05 03:09:19;;;;;;;0.00;0.00;;;12.90;99.90;;;;;;5094440;28;20056;-79
2022/07/05 03:11:45;;;;;;;0.00;0.00;;;12.90;99.90;;;;;;5094668;28;20044;-79
2022/07/05 03:14:11;;;;;;;0.00;0.00;;;12.90;99.90;;;;;;5094725;28;20081;-78
2022/07/05 03:16:38;;;;;;;0.00;0.00;;;12.90;99.90;;;;;;5094507;28;20048;-78
2022/07/05 03:19:04;;;;;;;0.00;0.00;;;12.90;99.90;;;;;;5076959;28;20056;-78
2022/07/05 03:21:29;;;;;;;0.00;0.00;;;12.90;99.90;;;;;;5094558;28;20069;-79
2022/07/05 03:23:55;;;;;;;0.00;0.00;;;12.90;99.90;;;;;;5094181;28;20131;-79
2022/07/05 03:26:21;;;;;;;0.00;0.00;;;12.90;99.90;;;;;;5094296;28;20048;-78
2022/07/05 03:28:46;;;;;;;0.00;0.00;;;12.90;99.90;;;;;;5094975;28;20500;-79
2022/07/05 03:31:12;;;;;;;0.00;0.00;;;12.90;99.90;;;;;;5111813;28;20126;-79
2022/07/05 03:33:37;;;;;;;0.10;0.10;;;12.90;99.90;;;;;;5094315;28;20044;-79
2022/07/05 03:36:03;;;;;;;0.20;0.00;;;12.90;99.90;;;;;;5093998;28;20396;-78
2022/07/05 03:38:29;;;;;;;0.00;0.00;;;12.90;99.90;;;;;;5094247;28;20047;-78
2022/07/05 03:40:55;;;;;;;0.52;0.20;;;12.90;99.90;;;;;;5093572;28;20089;-78
2022/07/05 03:43:20;;;;;;;0.20;0.20;;;12.90;99.90;;;;;;5077872;28;20036;-78
2022/07/05 03:45:46;;;;;;;0.00;0.00;;;13.00;99.90;;;;;;5093870;28;20123;-78
2022/07/05 03:48:15;;;;;;;0.00;0.00;;;13.00;99.90;;;;;;5092112;28;20040;-78
2022/07/05 03:50:40;;;;;;;0.00;0.00;;;13.00;99.90;;;;;;5091944;28;20052;-78
2022/07/05 03:53:06;;;;;;;0.00;0.00;;;13.00;99.90;;;;;;5093049;28;20501;-78
2022/07/05 03:55:31;;;;;;;0.00;0.00;;;13.00;99.90;;;;;;5076943;28;20522;-79
2022/07/05 03:57:57;;;;;;;0.00;0.00;;;13.00;99.90;;;;;;5093935;28;20032;-79
2022/07/05 04:00:23;;;;;;;0.00;0.00;;;13.00;99.90;;;;;;5093449;28;20123;-79
2022/07/05 04:02:48;;;;;;;0.00;0.00;;;13.10;99.90;;;;;;5093894;28;20044;-79
2022/07/05 04:05:14;;;;;;;0.00;0.00;;;13.10;99.90;;;;;;5076158;28;20488;-79
2022/07/05 04:07:54;;;;;;;0.00;0.00;;;13.10;99.90;;;;;;5092937;28;20044;-79
2022/07/05 04:10:20;;;;;;;0.00;0.00;;;13.10;99.90;;;;;;5093177;28;20151;-80
2022/07/05 04:12:47;;;;;;;0.00;0.00;;;13.10;99.90;;;;;;5093129;28;20043;-80
2022/07/05 04:15:13;;;;;;;0.00;0.00;;;13.20;99.90;;;;;;5093664;28;20059;-80
2022/07/05 04:17:49;;;;;;;0.05;0.00;;;13.20;99.90;;;;;;5093422;28;20430;-80
2022/07/05 04:20:15;;;;;;;1.10;0.03;;;13.20;99.90;;;;;;5076548;28;20058;-80
2022/07/05 04:22:41;;;;;;;0.00;0.00;;;13.30;99.90;;;;;;5093412;28;20048;-80
2022/07/05 04:25:16;;;;;;;0.00;0.00;;;13.30;99.90;;;;;;5093300;28;20051;-80
2022/07/05 04:27:52;;;;;;;0.00;0.00;;;13.40;99.90;;;;;;5093791;28;20039;-80
2022/07/05 04:30:22;;;;;;;0.10;0.00;;;13.40;99.90;;;;;;5093905;28;20387;-80
2022/07/05 04:32:48;;;;;;;0.00;0.00;;;13.50;99.90;;;;;;5093356;28;20127;-79
2022/07/05 04:35:14;;;;;;;0.38;0.38;;;13.50;99.90;;;;;;5093198;28;20139;-80
2022/07/05 04:37:41;;;;;;;0.00;0.00;;;13.60;99.90;;;;;;5093147;28;20134;-79
2022/07/05 04:40:09;;;;;;;0.00;0.00;;;13.60;99.90;;;;;;5093075;28;20098;-79
2022/07/05 04:42:35;;;;;;;0.00;0.00;;;13.70;99.90;;;;;;5093420;28;20047;-79
2022/07/05 04:45:01;;;;;;;0.00;0.00;;;13.80;99.90;;;;;;5093134;28;20044;-79
2022/07/05 04:47:27;;;;;;;0.00;0.00;;;13.80;99.90;;;;;;5092874;28;20052;-79
2022/07/05 04:49:53;;;;;;;0.00;0.00;;;13.90;99.90;;;;;;5092692;28;20083;-79
2022/07/05 04:52:19;;;;;;;0.00;0.00;;;13.90;99.90;;;;;;5092402;28;20052;-79
2022/07/05 04:54:45;;;;;;;0.08;0.08;;;13.90;99.90;;;;;;5092409;28;20056;-79
2022/07/05 04:57:10;;;;;;;0.00;0.00;;;14.00;99.90;;;;;;5076388;28;20047;-79
2022/07/05 04:59:36;;;;;;;0.00;0.00;;;14.00;99.90;;;;;;5098480;28;20122;-79
2022/07/05 05:02:02;;;;;;;0.00;0.00;;;14.10;99.90;;;;;;5112840;28;20042;-79
2022/07/05 05:04:28;;;;;;;0.00;0.00;;;14.20;99.90;;;;;;5096005;28;20063;-79
2022/07/05 05:06:54;;;;;;;0.10;0.10;;;14.30;99.90;;;;;;5095835;28;20364;-79
2022/07/05 05:09:21;;;;;;;0.05;0.05;;;14.30;99.90;;;;;;5112875;28;20116;-79
2022/07/05 05:11:47;;;;;;;0.05;0.00;;;14.30;99.90;;;;;;5113259;28;20507;-79
2022/07/05 05:14:13;;;;;;;0.10;0.10;;;14.40;99.90;;;;;;5095788;28;20052;-80
2022/07/05 05:16:39;;;;;;;0.00;0.00;;;14.40;99.90;;;;;;5113117;28;20118;-79
2022/07/05 05:19:04;;;;;;;1.70;0.45;;;14.40;99.90;;;;;;5096915;28;20052;-80
2022/07/05 05:21:30;;;;;;;0.00;0.00;;;14.40;99.90;;;;;;5113022;28;20043;-79
2022/07/05 05:23:56;;;;;;;0.05;0.00;;;14.40;99.90;;;;;;5113267;28;20055;-80
2022/07/05 05:26:24;;;;;;;0.00;0.00;;;14.40;99.90;;;;;;5112617;28;20372;-79
2022/07/05 05:28:50;;;;;;;0.00;0.00;;;14.50;99.90;;;;;;5095364;28;20059;-80
2022/07/05 05:31:17;;;;;;;0.00;0.00;;;14.50;99.90;;;;;;5098872;28;20544;-80
2022/07/05 05:33:43;;;;;;;0.00;0.00;;;14.60;99.90;;;;;;5116637;28;20419;-80
2022/07/05 05:36:09;;;;;;;0.00;0.00;;;14.70;99.90;;;;;;5117154;28;20035;-79
2022/07/05 05:38:34;;;;;;;0.00;0.00;;;14.70;99.90;;;;;;5100052;28;20047;-79
2022/07/05 05:41:00;;;;;;;0.00;0.00;;;14.70;99.90;;;;;;5100054;28;20068;-79
2022/07/05 05:43:26;;;;;;;0.00;0.00;;;14.80;99.90;;;;;;5117091;28;20379;-79
2022/07/05 05:45:52;;;;;;;0.20;0.00;;;14.90;99.90;;;;;;5116797;28;20032;-79
2022/07/05 05:48:21;;;;;;;0.00;0.00;;;15.00;99.90;;;;;;5116307;28;20044;-80
2022/07/05 05:50:47;;;;;;;0.00;0.00;;;15.40;99.90;;;;;;5099867;28;20043;-79
2022/07/05 05:53:13;;;;;;;0.00;0.00;;;15.90;99.90;;;;;;5116690;28;20040;-79
2022/07/05 05:55:39;;;;;;;0.08;0.05;;;16.10;99.90;;;;;;5116742;28;20556;-79
2022/07/05 05:58:15;;;;;;;0.10;0.10;;;16.10;99.90;;;;;;5099607;28;20502;-80
2022/07/05 06:00:41;;;;;;;0.00;0.00;;;16.10;99.90;;;;;;5099320;28;20552;-80
2022/07/05 06:03:07;;;;;;;0.00;0.00;;;16.10;99.90;;;;;;5116350;28;20044;-80
2022/07/05 06:05:33;;;;;;;0.00;0.00;;;16.00;99.90;;;;;;5116537;28;20040;-79
2022/07/05 06:07:59;;;;;;;0.00;0.00;;;16.00;99.90;;;;;;5098380;28;20132;-79
2022/07/05 06:10:29;;;;;;;0.00;0.00;;;15.90;99.90;;;;;;5116341;28;20059;-79
2022/07/05 06:12:58;;;;;;;0.38;0.10;;;15.90;99.90;;;;;;5099309;28;20051;-80
2022/07/05 06:15:23;;;;;;;0.20;0.20;;;15.90;99.90;;;;;;5098895;28;20043;-79
2022/07/05 06:17:49;;;;;;;0.00;0.00;;;15.80;99.90;;;;;;5116714;28;20058;-80
2022/07/05 06:20:21;;;;;;;0.00;0.00;;;15.80;99.90;;;;;;5115595;28;20089;-80
2022/07/05 06:22:48;;;;;;;0.00;0.00;;;15.90;99.90;;;;;;5116340;28;20058;-80
2022/07/05 06:25:14;;;;;;;0.20;0.10;;;16.00;99.90;;;;;;5115613;28;20059;-79
2022/07/05 06:27:44;;;;;;;0.00;0.00;;;16.10;99.90;;;;;;5115747;28;20048;-80
2022/07/05 06:30:13;;;;;;;0.10;0.10;;;16.10;99.90;;;;;;5098994;28;20090;-79
2022/07/05 06:32:38;;;;;;;0.00;0.00;;;16.10;99.90;;;;;;5115937;28;20047;-80
2022/07/05 06:35:04;;;;;;;0.00;0.00;;;16.00;99.90;;;;;;5098831;28;20487;-80
2022/07/05 06:37:48;;;;;;;0.00;0.00;;;16.10;99.90;;;;;;5115928;28;20043;-79
2022/07/05 06:40:18;;;;;;;0.10;0.00;;;16.00;99.90;;;;;;5115803;28;20040;-80
2022/07/05 06:42:44;;;;;;;0.00;0.00;;;16.10;99.90;;;;;;5115214;28;20403;-80
2022/07/05 06:45:10;;;;;;;0.00;0.00;;;16.20;99.90;;;;;;5115526;28;20043;-79
2022/07/05 06:47:36;;;;;;;0.00;0.00;;;16.20;99.90;;;;;;5098527;28;20043;-80
2022/07/05 06:50:03;;;;;;;0.10;0.10;;;16.30;99.90;;;;;;5097990;28;20380;-80
2022/07/05 06:52:31;;;;;;;0.00;0.00;;;16.40;99.90;;;;;;5098492;28;20044;-80
2022/07/05 06:54:58;;;;;;;0.95;0.30;;;16.50;99.90;;;;;;5098195;28;20043;-80
2022/07/05 06:57:24;;;;;;;0.55;0.17;;;16.60;99.90;;;;;;5115377;28;20401;-80
2022/07/05 06:59:50;;;;;;;0.30;0.10;;;16.80;99.90;;;;;;5097478;28;20077;-80
2022/07/05 07:02:16;;;;;;;0.05;0.00;;;16.90;99.90;;;;;;5097508;28;20059;-80
2022/07/05 07:04:43;;;;;;;0.38;0.20;;;17.00;99.90;;;;;;5115333;28;20036;-79
2022/07/05 07:09:17;;;;;;;0.00;0.00;;;17.10;99.90;;;;;;5114816;28;20059;-80
2022/07/05 07:10:02;;;;;;;0.00;0.00;;;17.20;99.90;;;;;;5115403;28;20044;-80
2022/07/05 07:12:29;;;;;;;0.10;0.10;;;17.20;99.90;;;;;;5098080;28;20093;-80
2022/07/05 07:14:56;;;;;;;0.00;0.00;;;17.20;99.90;;;;;;5097740;28;20418;-80
2022/07/05 07:17:21;;;;;;;0.00;0.00;;;17.30;99.90;;;;;;5097989;28;20048;-79
2022/07/05 07:19:47;;;;;;;0.00;0.00;;;17.40;99.90;;;;;;5114782;28;20066;-79
2022/07/05 07:22:13;;;;;;;0.00;0.00;;;17.50;99.90;;;;;;5114842;28;20383;-79
2022/07/05 07:24:38;;;;;;;0.75;0.43;;;17.60;99.90;;;;;;5114540;28;20043;-79
2022/07/05 07:27:04;;;;;;;0.20;0.00;;;17.70;99.90;;;;;;5115079;28;20104;-79
2022/07/05 07:29:34;;;;;;;0.00;0.00;;;17.80;99.90;;;;;;5097774;28;20466;-79
2022/07/05 07:32:00;;;;;;;0.63;0.30;;;18.00;99.90;;;;;;5114604;28;20064;-79
2022/07/05 07:34:27;;;;;;;0.00;0.00;;;18.10;99.90;;;;;;5097203;28;20052;-79
2022/07/05 07:36:54;;;;;;;0.00;0.00;;;18.30;99.90;;;;;;5097607;28;20047;-79
2022/07/05 07:39:20;;;;;;;0.00;0.00;;;18.40;99.90;;;;;;5097505;28;20487;-80
2022/07/05 07:41:46;;;;;;;0.00;0.00;;;18.50;99.90;;;;;;5114415;28;20043;-79
2022/07/05 07:44:12;;;;;;;0.00;0.00;;;18.60;99.90;;;;;;5125274;27;20084;-79
2022/07/05 07:46:40;;;;;;;0.00;0.00;;;18.60;99.90;;;;;;5117595;27;20051;-79
2022/07/05 07:49:07;;;;;;;0.00;0.00;;;18.70;99.90;;;;;;5117371;27;20100;-79
2022/07/05 07:51:33;;;;;;;0.00;0.00;;;18.90;99.90;;;;;;5152059;27;20054;-79
2022/07/05 07:53:59;;;;;;;0.00;0.00;;;18.90;99.90;;;;;;5115959;27;20061;-79
2022/07/05 07:56:25;;;;;;;0.10;0.10;;;18.90;99.90;;;;;;5117729;27;20043;-79
2022/07/05 07:58:51;;;;;;;0.00;0.00;;;19.00;99.90;;;;;;5134687;27;20059;-79
2022/07/05 08:01:16;;;;;;;0.00;0.00;;;19.00;99.90;;;;;;5151841;27;20371;-79
2022/07/05 08:03:43;;;;;;;0.00;0.00;;;19.10;99.90;;;;;;5134506;27;20039;-78
2022/07/05 08:06:10;;;;;;;0.13;0.13;;;19.20;99.90;;;;;;5151736;27;20043;-79
2022/07/05 08:08:38;;;;;;;0.00;0.00;;;19.30;99.90;;;;;;5151182;27;20111;-79
2022/07/05 08:11:04;;;;;;;0.00;0.00;;;19.30;99.90;;;;;;5134694;27;20062;-79
2022/07/05 08:13:29;;;;;;;0.00;0.00;;;19.30;99.90;;;;;;5150952;27;20061;-79
2022/07/05 08:15:55;;;;;;;1.65;0.47;;;19.20;99.90;;;;;;5134288;27;20225;-79
2022/07/05 08:23:49;;;;;;;0.00;0.00;;;19.30;99.90;;;;;;5134745;27;20522;-78
2022/07/05 08:26:15;;;;;;;0.00;0.00;;;19.20;99.90;;;;;;5117189;27;20135;-78
2022/07/05 08:28:41;;;;;;;0.00;0.00;;;19.30;99.90;;;;;;5133644;27;20410;-78
2022/07/05 08:31:06;;;;;;;0.00;0.00;;;19.50;99.90;;;;;;5116458;27;20055;-79
2022/07/05 08:33:32;;;;;;;0.00;0.00;;;19.70;99.90;;;;;;5151356;27;20398;-79
2022/07/05 08:36:00;;;;;;;0.00;0.00;;;19.70;99.90;;;;;;5133953;27;20069;-79
2022/07/05 08:38:26;;;;;;;0.00;0.00;;;19.60;99.90;;;;;;5116360;27;20051;-79
2022/07/05 08:40:54;;;;;;;0.20;0.20;;;19.50;99.90;;;;;;5133961;27;20053;-79
2022/07/05 08:43:23;;;;;;;0.00;0.00;;;19.70;99.90;;;;;;5133886;27;20108;-79
2022/07/05 08:45:50;;;;;;;0.00;0.00;;;19.80;99.90;;;;;;5116238;28;20058;-79
2022/07/05 08:48:16;;;;;;;0.17;0.10;;;19.70;99.90;;;;;;5151494;27;20043;-79
2022/07/05 08:50:44;;;;;;;3.30;0.63;;;19.70;99.90;;;;;;5150869;27;20467;-79
2022/07/05 08:53:10;;;;;;;0.10;0.00;;;19.60;99.90;;;;;;5151165;27;20039;-79
2022/07/05 08:55:35;;;;;;;0.00;0.00;;;19.70;99.90;;;;;;5133778;27;20420;-79
2022/07/05 08:58:01;;;;;;;0.00;0.00;;;20.00;99.90;;;;;;5151067;27;20100;-79
2022/07/05 09:00:27;;;;;;;0.00;0.00;;;20.20;99.90;;;;;;5134319;27;20043;-78
2022/07/05 09:02:54;;;;;;;0.00;0.00;;;20.40;99.90;;;;;;5151160;27;20084;-79
2022/07/05 09:05:22;;;;;;;0.00;0.00;;;20.40;99.90;;;;;;5118205;27;20047;-79
2022/07/05 09:08:01;;;;;;;0.75;0.52;;;20.40;99.90;;;;;;5137566;27;20188;-79
2022/07/05 09:10:28;;;;;;;0.00;0.00;;;20.20;99.90;;;;;;5121121;27;20155;-80
2022/07/05 09:12:55;;;;;;;0.00;0.00;;;20.00;99.90;;;;;;5137630;27;20100;-79
2022/07/05 09:15:22;;;;;;;0.17;0.13;;;19.70;99.90;;;;;;5120762;27;20082;-79
2022/07/05 09:17:48;;;;;;;0.00;0.00;;;19.60;99.90;;;;;;5137864;27;20051;-79
2022/07/05 09:20:16;;;;;;;0.90;0.47;;;19.60;99.90;;;;;;5155101;27;20176;-79
2022/07/05 09:22:48;;;;;;;0.00;0.00;;;19.90;99.90;;;;;;5120528;27;20437;-79
2022/07/05 09:25:19;;;;;;;0.00;0.00;;;20.10;99.90;;;;;;5120746;27;20053;-80
2022/07/05 09:28:04;;;;;;;0.00;0.00;;;20.10;99.90;;;;;;5155043;27;20049;-78
2022/07/05 09:30:38;;;;;;;0.75;0.10;;;20.00;99.90;;;;;;5137455;27;20043;-79
2022/07/05 09:33:07;;;;;;;0.00;0.00;;;19.80;99.90;;;;;;5137465;27;20090;-79
2022/07/05 09:35:35;;;;;;;0.00;0.00;;;19.90;99.90;;;;;;5120288;27;20130;-79
2022/07/05 09:38:03;;;;;;;0.00;0.00;;;20.00;99.90;;;;;;5120212;27;20055;-79
2022/07/05 09:40:55;;;;;;;0.00;0.00;;;20.30;99.90;;;;;;5137665;27;20047;-79
2022/07/05 09:43:23;;;;;;;0.00;0.00;;;20.30;99.90;;;;;;5137168;27;20051;-79
2022/07/05 09:46:03;;;;;;;0.00;0.00;;;20.10;99.80;;;;;;5137267;27;20492;-79
2022/07/05 09:48:30;;;;;;;0.00;0.00;;;20.00;99.90;;;;;;5154374;27;20039;-79
2022/07/05 09:51:13;;;;;;;0.00;0.00;;;19.80;99.90;;;;;;5137170;27;20134;-79
2022/07/05 09:53:53;;;;;;;0.00;0.00;;;19.60;99.90;;;;;;5137332;27;20051;-79
2022/07/05 09:56:20;;;;;;;0.00;0.00;;;19.50;99.90;;;;;;5119756;27;20055;-79
2022/07/05 09:58:46;;;;;;;0.00;0.00;;;19.30;99.90;;;;;;5120082;27;20047;-79
2022/07/05 10:01:30;;;;;;;0.00;0.00;;;19.50;99.90;;;;;;5119867;27;20117;-79
2022/07/05 10:03:58;;;;;;;0.00;0.00;;;19.90;99.90;;;;;;5136962;27;20047;-79
2022/07/05 10:06:26;;;;;;;0.00;0.00;;;20.30;99.90;;;;;;5137134;27;20042;-79
2022/07/05 10:08:55;;;;;;;0.00;0.00;;;20.80;99.90;;;;;;5140735;27;20175;-79
2022/07/05 10:11:22;;;;;;;0.00;0.00;;;21.10;99.90;;;;;;5140738;27;20042;-80
2022/07/05 10:13:53;;;;;;;0.00;0.00;;;21.10;99.90;;;;;;5157506;27;20501;-79
2022/07/05 10:16:21;;;;;;;0.00;0.00;;;20.90;99.90;;;;;;5139214;27;20081;-80
2022/07/05 10:18:51;;;;;;;0.00;0.00;;;20.70;99.40;;;;;;5122222;27;20494;-80
2022/07/05 10:21:18;;;;;;;0.22;0.15;;;20.50;99.90;;;;;;5157300;27;20386;-80
2022/07/05 10:23:51;;;;;;;0.00;0.00;;;20.30;99.70;;;;;;5122526;27;20137;-80
2022/07/05 10:26:18;;;;;;;0.00;0.00;;;20.20;99.90;;;;;;5157306;27;20046;-80
2022/07/05 10:28:46;;;;;;;0.00;0.00;;;20.20;99.90;;;;;;5156860;27;20038;-80
2022/07/05 10:31:14;;;;;;;0.00;0.00;;;20.20;99.90;;;;;;5139865;27;20435;-80
2022/07/05 10:33:40;;;;;;;0.00;0.00;;;20.10;99.80;;;;;;5139764;27;20054;-80
2022/07/05 10:36:10;;;;;;;0.00;0.00;;;20.00;99.70;;;;;;5122580;27;20442;-80
2022/07/05 10:38:46;;;;;;;0.00;0.00;;;20.00;99.90;;;;;;5121601;27;20058;-80
2022/07/05 10:41:17;;;;;;;0.00;0.00;;;20.30;99.90;;;;;;5122559;27;20533;-79
2022/07/05 10:43:42;;;;;;;0.00;0.00;;;20.70;99.90;;;;;;5156990;27;20043;-79
2022/07/05 10:46:08;;;;;;;0.00;0.00;;;21.20;99.90;;;;;;5139479;27;20038;-79
2022/07/05 10:48:35;;;;;;;1.35;0.25;;;21.30;99.00;;;;;;5122289;27;20043;-79
2022/07/05 10:51:21;;;;;;;0.00;0.00;;;21.20;98.50;;;;;;5104359;27;20122;-79
2022/07/05 10:53:47;;;;;;;0.00;0.00;;;21.00;98.10;;;;;;5100266;27;20055;-80
2022/07/05 10:56:13;;;;;;;0.00;0.00;;;20.80;98.50;;;;;;5118569;27;20506;-80
2022/07/05 10:58:42;;;;;;;0.00;0.00;;;20.70;98.80;;;;;;5100424;27;20047;-79
2022/07/05 11:01:20;;;;;;;0.00;0.00;;;20.80;98.50;;;;;;5118872;27;20054;-79
2022/07/05 11:03:48;;;;;;;0.00;0.00;;;20.90;99.10;;;;;;5118194;27;20043;-79
2022/07/05 11:06:21;;;;;;;0.00;0.00;;;20.70;98.60;;;;;;5118565;27;20095;-79
2022/07/05 11:09:00;;;;;;;0.00;0.00;;;20.60;98.20;;;;;;5101364;27;20059;-79
2022/07/05 11:11:42;;;;;;;0.10;0.00;;;20.60;98.70;;;;;;5101238;27;20551;-80
2022/07/05 11:14:21;;;;;;;0.00;0.00;;;20.60;99.10;;;;;;5101554;27;20133;-79
2022/07/05 11:17:05;;;;;;;0.00;0.00;;;20.90;99.10;;;;;;5101382;27;20576;-80
2022/07/05 11:19:31;;;;;;;;;;;21.10;98.60;;;;;;5102105;27;20054;-79
2022/07/05 11:22:05;;;;;;;2.75;0.30;;;21.20;98.10;;;;;;5118406;27;19923;-79
2022/07/05 11:24:35;;;;;;;0.30;0.00;;;21.10;98.30;;;;;;5118165;27;20041;-79
2022/07/05 11:27:03;;;;;;;0.00;0.00;;;20.90;98.00;;;;;;5118501;27;20043;-79
2022/07/05 11:29:43;;;;;;;0.00;0.00;;;20.60;98.50;;;;;;5117447;27;20047;-79
2022/07/05 11:32:11;;;;;;;0.00;0.00;;;20.40;98.70;;;;;;5100787;27;20047;-79
2022/07/05 11:34:37;;;;;;;0.00;0.00;;;20.40;98.60;;;;;;5118190;27;20086;-79
2022/07/05 11:37:26;;;;;;;0.00;0.00;;;20.30;99.20;;;;;;5117922;27;20047;-79
2022/07/05 11:40:07;;;;;;;0.05;0.00;;;20.60;99.90;;;;;;5118105;27;20053;-79
2022/07/05 11:42:42;;;;;;;0.00;0.00;;;21.20;99.90;;;;;;5101145;27;20054;-79
2022/07/05 11:45:08;;;;;;;0.00;0.00;;;21.50;98.70;;;;;;5101596;27;20054;-79
2022/07/05 11:47:35;;;;;;;0.00;0.00;;;21.90;97.80;;;;;;5117571;27;20097;-79
2022/07/05 11:50:04;;;;;;;0.00;0.00;;;21.90;98.50;;;;;;5116628;27;20035;-79
2022/07/05 11:52:34;;;;;;;0.40;0.08;;;21.90;98.50;;;;;;5100550;27;20058;-79
2022/07/05 11:55:02;;;;;;;0.00;0.00;;;21.70;98.40;;;;;;5100904;27;20043;-79
2022/07/05 11:57:28;;;;;;;0.00;0.00;;;21.50;98.00;;;;;;5100553;27;20387;-79
2022/07/05 11:59:54;;;;;;;0.00;0.00;;;21.20;98.10;;;;;;5117134;27;20043;-79
2022/07/05 12:02:20;;;;;;;0.00;0.00;;;20.90;97.80;;;;;;5100102;27;20043;-79
2022/07/05 12:04:51;;;;;;;0.00;0.00;;;20.70;98.50;;;;;;5100472;27;20512;-80
2022/07/05 12:07:34;;;;;;;0.00;0.00;;;20.30;97.80;;;;;;5099834;27;20055;-80
2022/07/05 12:12:47;;;;;;;0.00;0.00;;;19.70;98.70;;;;;;5115601;27;20057;-79
2022/07/05 12:15:21;;;;;;;0.00;0.00;;;19.60;99.10;;;;;;5098614;27;20457;-79
2022/07/05 12:17:51;;;;;;;0.00;0.00;;;19.50;99.20;;;;;;5114917;27;20047;-79
2022/07/05 12:20:25;;;;;;;0.00;0.00;;;19.60;99.70;;;;;;5113978;27;20043;-79
2022/07/05 12:22:51;;;;;;;0.00;0.00;;;20.20;99.90;;;;;;5099558;27;20051;-79
2022/07/05 12:25:23;;;;;;;0.00;0.00;;;20.70;99.20;;;;;;5116891;27;20097;-79
2022/07/05 12:27:50;;;;;;;0.00;0.00;;;21.20;99.00;;;;;;5116671;27;20486;-79
2022/07/05 12:30:16;;;;;;;0.00;0.00;;;21.60;98.40;;;;;;5099265;27;20490;-79
2022/07/05 12:33:00;;;;;;;0.00;0.00;;;21.90;97.70;;;;;;5117639;27;20050;-79
2022/07/05 12:35:46;;;;;;;0.97;0.57;;;22.00;96.60;;;;;;5099511;27;20066;-79
2022/07/05 12:38:18;;;;;;;0.00;0.00;;;22.20;96.00;;;;;;5116477;27;20398;-79
2022/07/05 12:40:59;;;;;;;0.00;0.00;;;22.10;96.40;;;;;;5116252;27;20051;-79
2022/07/05 12:43:28;;;;;;;0.00;0.00;;;22.40;98.40;;;;;;5116954;27;20505;-79
2022/07/05 12:46:03;;;;;;;0.98;0.10;;;22.40;96.20;;;;;;5116872;28;20039;-79
2022/07/05 12:48:34;;;;;;;0.00;0.00;;;22.40;96.10;;;;;;5099557;28;20036;-79
2022/07/05 12:51:00;;;;;;;0.00;0.00;;;22.30;94.10;;;;;;5099626;28;20043;-79
2022/07/05 12:59:07;;;;;;;10.77;0.80;;;22.30;93.20;;;;;;5115615;27;20486;-80
2022/07/05 13:01:43;;;;;;;0.25;0.08;;;22.30;93.80;;;;;;5116478;28;20534;-79
2022/07/05 13:04:11;;;;;;;0.00;0.00;;;22.00;91.90;;;;;;5116316;28;20079;-79
2022/07/05 13:06:47;;;;;;;0.00;0.00;;;21.80;93.10;;;;;;5116376;27;20122;-79